< < Back
Terminal Aerodrome Forecast


Current Version              Previous Versions:   1  2  3  4  5  6  7  8  9  

Terminal Aerodrome Forecast

742
FTUS42 KMLB 191451 AAA
TAFMCO
TAF AMD
KMCO 191451Z 1915/2012 18010KT P6SM SCT035 SCT250
     FM192100 22012KT P6SM VCTS SCT040CB BKN250
     FM200000 28007KT P6SM FEW040 BKN250
     FM200800 19005KT P6SM SCT020 BKN100=



Latest METAR

124
SAUS70 KWBC 191900 RRQ
MTRMCO
METAR KMCO 191853Z 18012KT 10SM FEW048 FEW250 OVC300 32/22 A2989 RMK AO2
SLP119 T03220217


USA.gov is the U.S. government's official web portal to all federal, state and local government web resources and services.